Tubul — A8VP8 — position and weather

sailwx.info

Track history (hours):
 
Tides and Currents Weather Stations Pressure Air Temp Water Temp Dewpoint Dewpoint Depression Visibility Wind Speed Wind Dir Waves Ship Positions

Tubul

Last reported at 2017-Oct-28 15:41 UTC. Time now 2017-Nov-24 04:12 UTC.
Position N 35°45' E 014°49'.
Warning: this ship's position is 26 days out of date.

Length 300 m; draft 11.1 m.

Type: Ship (hazmat cat A). MMSI: 636014647.

Date/timePositionNaut miles runAvg speedWind from/ knotsBaromVisibWave heightAir tempDewpointWater temp
2017-Oct-28 15:41N 35°45' E 014°49'317.9
2017-Oct-28 15:30N 35°46' E 014°45'816.3
2017-Oct-28 14:59N 35°48' E 014°34'2 2.3
2017-Oct-28 14:14N 35°49' E 014°33'0 0.0
2017-Oct-28 13:59N 35°49' E 014°33'0 0.0
2017-Oct-28 13:28N 35°49' E 014°33'0 0.0
2017-Oct-28 12:56N 35°49' E 014°33'0 0.0
2017-Oct-28 12:29N 35°49' E 014°33'0 0.0
2017-Oct-28 11:59N 35°49' E 014°33'0 0.0
2017-Oct-28 11:29N 35°49' E 014°33'0 0.0
2017-Oct-28 07:05N 35°49' E 014°33'0 0.0
2017-Oct-28 03:56N 35°49' E 014°33'0 0.0
2017-Oct-28 03:22N 35°49' E 014°33'0 1.1
2017-Oct-28 03:00N 35°49' E 014°32'3 5.3
2017-Oct-28 02:29N 35°48' E 014°35'3 5.1
2017-Oct-28 02:00N 35°46' E 014°37'3 6.4
2017-Oct-28 01:30N 35°43' E 014°36'1 1.6
2017-Oct-28 01:00N 35°42' E 014°36'713.4
2017-Oct-28 00:30N 35°42' E 014°27'918.6
2017-Oct-28 00:00N 35°48' E 014°19'1019.5
2017-Oct-27 23:30N 35°55' E 014°10'1019.2
2017-Oct-27 23:00N 36°02' E 014°02'919.0
2017-Oct-27 22:30N 36°08' E 013°54'1019.3
2017-Oct-27 22:00N 36°15' E 013°45'1019.3
2017-Oct-27 21:30N 36°22' E 013°36'24820.0
2017-Oct-27 09:05N 39°54' E 010°51'19521.0
2017-Oct-26 23:48N 43°00' E 009°36'620.6
2017-Oct-26 23:30N 43°06' E 009°34'1020.7
2017-Oct-26 23:00N 43°16' E 009°30'1020.9
2017-Oct-26 22:30N 43°26' E 009°26'1020.6
2017-Oct-26 22:00N 43°36' E 009°21'1020.7
2017-Oct-26 21:30N 43°45' E 009°16'1120.6
2017-Oct-26 20:58N 43°56' E 009°13'1020.6
2017-Oct-26 20:30N 44°05' E 009°07'1020.6
2017-Oct-26 20:00N 44°14' E 009°01'917.9
2017-Oct-26 19:30N 44°23' E 008°57'2 4.1
2017-Oct-26 18:58N 44°24' E 008°55'0 0.0
2017-Oct-26 18:28N 44°24' E 008°55'0 0.0
2017-Oct-26 17:58N 44°24' E 008°55'0 0.0
2017-Oct-26 17:28N 44°24' E 008°55'0 0.0
2017-Oct-26 16:58N 44°24' E 008°55'0 0.0
2017-Oct-26 16:28N 44°24' E 008°55'0 0.0
2017-Oct-26 15:58N 44°24' E 008°55'0 0.0
2017-Oct-26 15:28N 44°24' E 008°55'0 0.0
2017-Oct-26 14:58N 44°24' E 008°55'0 0.0
2017-Oct-26 14:28N 44°24' E 008°55'0 0.0
2017-Oct-26 13:58N 44°24' E 008°55'0 0.0
2017-Oct-26 13:28N 44°24' E 008°55'0 0.0
2017-Oct-26 12:58N 44°24' E 008°55'0 0.0
2017-Oct-26 12:28N 44°24' E 008°55'0 0.0
2017-Oct-26 11:52N 44°24' E 008°55'0 0.0
2017-Oct-26 11:22N 44°24' E 008°55'0 0.0
2017-Oct-26 10:58N 44°24' E 008°55'0 0.0
2017-Oct-26 10:28N 44°24' E 008°55'0 0.0
2017-Oct-26 09:58N 44°24' E 008°55'0 0.0
2017-Oct-26 09:28N 44°24' E 008°55'0 0.0
2017-Oct-26 08:58N 44°24' E 008°55'0 0.0
2017-Oct-26 08:28N 44°24' E 008°55'0 0.0
2017-Oct-26 07:58N 44°24' E 008°55'0 0.0
2017-Oct-26 07:28N 44°24' E 008°55'0 0.0
2017-Oct-26 06:58N 44°24' E 008°55'0 0.0
2017-Oct-26 06:28N 44°24' E 008°55'0 0.0
2017-Oct-26 05:58N 44°24' E 008°55'0 0.0
2017-Oct-26 05:28N 44°24' E 008°55'0 0.0
2017-Oct-26 04:58N 44°24' E 008°55'0 0.0
2017-Oct-26 04:28N 44°24' E 008°55'0 0.0
2017-Oct-26 03:58N 44°24' E 008°55'0 0.0
2017-Oct-26 03:28N 44°24' E 008°55'0 0.0
2017-Oct-26 02:58N 44°24' E 008°55'0 0.0
2017-Oct-26 02:28N 44°24' E 008°55'0 0.0
2017-Oct-26 01:58N 44°24' E 008°55'0 0.0
2017-Oct-26 01:28N 44°24' E 008°55'0 0.0
2017-Oct-26 00:58N 44°24' E 008°55'0 0.0
2017-Oct-26 00:28N 44°24' E 008°55'0 0.0
2017-Oct-25 23:58N 44°24' E 008°55'0 0.0
2017-Oct-25 23:28N 44°24' E 008°55'0 0.0
2017-Oct-25 22:58N 44°24' E 008°55'0 0.0
2017-Oct-25 22:28N 44°24' E 008°55'0 0.0
2017-Oct-25 21:55N 44°24' E 008°55'0 0.0
2017-Oct-25 21:30N 44°24' E 008°55'0 0.9
2017-Oct-25 21:00N 44°24' E 008°55'3 5.5
2017-Oct-25 20:30N 44°22' E 008°58'1 1.5
2017-Oct-25 20:00N 44°22' E 008°59'1 1.5
2017-Oct-25 19:30N 44°21' E 008°59'2 3.3
2017-Oct-25 19:00N 44°21' E 009°02'0 0.3
2017-Oct-25 18:30N 44°21' E 009°02'0 0.4
2017-Oct-25 18:00N 44°21' E 009°01'0 0.3
2017-Oct-25 17:30N 44°21' E 009°01'0 0.3
2017-Oct-25 17:00N 44°21' E 009°01'0 0.3
2017-Oct-25 16:30N 44°21' E 009°01'0 1.0
2017-Oct-25 16:00N 44°21' E 009°02'0 0.4
2017-Oct-25 15:30N 44°21' E 009°02'0 0.4
2017-Oct-25 15:00N 44°21' E 009°01'0 0.3
2017-Oct-25 14:30N 44°21' E 009°01'0 0.5
2017-Oct-25 14:00N 44°21' E 009°01'0 0.4
2017-Oct-25 13:30N 44°21' E 009°02'0 0.2
2017-Oct-25 13:00N 44°21' E 009°02'0 0.2
2017-Oct-25 12:30N 44°21' E 009°01'0 0.2
2017-Oct-25 12:00N 44°21' E 009°01'0 0.2
2017-Oct-25 11:30N 44°21' E 009°01'1 1.2
2017-Oct-25 11:00N 44°21' E 009°01'0 0.4
2017-Oct-25 10:30N 44°21' E 009°00'0 0.5
2017-Oct-25 10:00N 44°20' E 009°00'0 0.1
2017-Oct-25 09:30N 44°20' E 009°00'0 1.0
2017-Oct-25 09:00N 44°21' E 009°01'3 6.5
2017-Oct-25 08:30N 44°18' E 009°00'5 9.2
2017-Oct-25 08:00N 44°13' E 008°58'714.6
2017-Oct-25 07:30N 44°07' E 008°53'714.7
2017-Oct-25 07:01N 44°01' E 008°47'714.9
2017-Oct-25 06:30N 43°55' E 008°40'815.3
2017-Oct-25 06:00N 43°49' E 008°33'815.3
2017-Oct-25 05:30N 43°43' E 008°27'815.4
2017-Oct-25 05:00N 43°37' E 008°20'815.4
2017-Oct-25 04:30N 43°31' E 008°14'815.6
2017-Oct-25 04:00N 43°25' E 008°07'815.5
2017-Oct-25 03:30N 43°19' E 007°60'815.4
2017-Oct-25 03:00N 43°16' E 007°51'815.6
2017-Oct-25 02:30N 43°12' E 007°41'815.5
2017-Oct-25 02:00N 43°08' E 007°32'815.5
2017-Oct-25 01:31N 43°05' E 007°22'815.5
2017-Oct-25 01:01N 43°01' E 007°13'815.4
2017-Oct-25 00:30N 42°58' E 007°03'815.3
2017-Oct-24 23:58N 42°54' E 006°53'714.9
2017-Oct-24 23:31N 42°51' E 006°45'815.2
2017-Oct-24 23:00N 42°49' E 006°35'815.2
2017-Oct-24 22:30N 42°47' E 006°25'914.8
2017-Oct-24 21:56N 42°46' E 006°13'615.0
2017-Oct-24 21:30N 42°47' E 006°05'815.0
2017-Oct-24 21:00N 42°48' E 005°55'715.0
2017-Oct-24 20:31N 42°49' E 005°45'815.0
2017-Oct-24 20:00N 42°51' E 005°35'815.2
2017-Oct-24 19:30N 42°54' E 005°25'815.0
2017-Oct-24 19:00N 42°57' E 005°16'714.5
2017-Oct-24 18:30N 43°01' E 005°08'815.7
2017-Oct-24 18:01N 43°08' E 005°03'918.2
2017-Oct-24 17:30N 43°17' E 004°60'612.6
2017-Oct-24 17:00N 43°23' E 004°57'5 9.2
2017-Oct-24 16:29N 43°25' E 004°51'0 0.0
2017-Oct-24 15:59N 43°25' E 004°51'0 0.0
2017-Oct-24 15:29N 43°25' E 004°51'0 0.0
2017-Oct-24 14:59N 43°25' E 004°51'0 0.0
2017-Oct-24 14:26N 43°25' E 004°51'0 0.0
2017-Oct-24 13:59N 43°25' E 004°51'0 0.0
2017-Oct-24 13:29N 43°25' E 004°51'0 0.0
2017-Oct-24 12:59N 43°25' E 004°51'0 0.0
2017-Oct-24 12:29N 43°25' E 004°51'0 0.0
2017-Oct-24 11:59N 43°25' E 004°51'0 0.0
2017-Oct-24 11:29N 43°25' E 004°51'0 0.0
2017-Oct-24 10:59N 43°25' E 004°51'0 0.0
2017-Oct-24 10:29N 43°25' E 004°51'0 0.0
2017-Oct-24 09:59N 43°25' E 004°51'0 0.0
2017-Oct-24 09:26N 43°25' E 004°51'0 0.0
2017-Oct-24 08:59N 43°25' E 004°51'0 0.0
2017-Oct-24 08:29N 43°25' E 004°51'0 0.0
2017-Oct-24 07:59N 43°25' E 004°51'0 0.0
2017-Oct-24 07:29N 43°25' E 004°51'0 0.0
2017-Oct-24 06:59N 43°25' E 004°51'0 0.0
2017-Oct-24 06:29N 43°25' E 004°51'0 0.0
2017-Oct-24 05:59N 43°25' E 004°51'0 0.0
2017-Oct-24 05:29N 43°25' E 004°51'0 0.0
2017-Oct-24 04:59N 43°25' E 004°51'0 0.0
2017-Oct-24 04:29N 43°25' E 004°51'0 0.0
2017-Oct-24 03:59N 43°25' E 004°51'0 0.0
2017-Oct-24 03:29N 43°25' E 004°51'0 0.0
2017-Oct-24 02:59N 43°25' E 004°51'0 0.0
2017-Oct-24 02:29N 43°25' E 004°51'0 0.0
2017-Oct-24 01:59N 43°25' E 004°51'0 0.0
2017-Oct-24 01:29N 43°25' E 004°51'0 0.0
2017-Oct-24 00:59N 43°25' E 004°51'0 0.0
2017-Oct-24 00:29N 43°25' E 004°51'0 0.0
2017-Oct-23 23:56N 43°25' E 004°51'0 0.0
2017-Oct-23 23:29N 43°25' E 004°51'0 0.0
2017-Oct-23 22:59N 43°25' E 004°51'0 0.0
2017-Oct-23 22:29N 43°25' E 004°51'0 0.0
2017-Oct-23 21:59N 43°25' E 004°51'0 0.0
2017-Oct-23 21:29N 43°25' E 004°51'0 0.0
2017-Oct-23 20:59N 43°25' E 004°51'0 0.0
2017-Oct-23 20:29N 43°25' E 004°51'0 0.0
2017-Oct-23 19:59N 43°25' E 004°51'0 0.0
2017-Oct-23 19:29N 43°25' E 004°51'0 0.0
2017-Oct-23 18:59N 43°25' E 004°51'0 0.0
2017-Oct-23 18:29N 43°25' E 004°51'0 0.0
2017-Oct-23 17:59N 43°25' E 004°51'0 0.0
2017-Oct-23 17:29N 43°25' E 004°51'0 0.0
2017-Oct-23 16:59N 43°25' E 004°51'0 0.0
2017-Oct-23 16:29N 43°25' E 004°51'0 0.0
2017-Oct-23 15:59N 43°25' E 004°51'0 0.0
2017-Oct-23 15:29N 43°25' E 004°51'0 0.0
2017-Oct-23 14:59N 43°25' E 004°51'0 0.0
2017-Oct-23 14:29N 43°25' E 004°51'0 0.0
2017-Oct-23 13:59N 43°25' E 004°51'0 0.0
2017-Oct-23 13:30N 43°25' E 004°51'0 0.2
2017-Oct-23 13:00N 43°25' E 004°51'2 3.3
2017-Oct-23 12:30N 43°24' E 004°53'611.1
2017-Oct-23 12:00N 43°21' E 004°59'4 7.4
2017-Oct-23 11:31N 43°17' E 005°00'510.6
2017-Oct-23 11:00N 43°12' E 005°02'4 8.5
2017-Oct-23 10:30N 43°08' E 005°03'4 8.0
2017-Oct-23 10:00N 43°04' E 005°03'3 6.5
2017-Oct-23 09:30N 43°01' E 005°02'612.3
2017-Oct-23 09:00N 42°56' E 004°58'713.7
2017-Oct-23 08:30N 42°50' E 004°52'713.4
2017-Oct-23 08:00N 42°45' E 004°46'713.4
2017-Oct-23 07:30N 42°40' E 004°41'713.5
2017-Oct-23 07:00N 42°35' E 004°35'34814.7
2017-Oct-22 07:24N 38°00' W 000°06'1215.0
2017-Oct-22 06:36N 37°51' W 000°15'315.3
2017-Oct-22 06:25N 37°48' W 000°17'615.4
2017-Oct-22 06:00N 37°43' W 000°22'815.5
2017-Oct-22 05:30N 37°37' W 000°27'815.5
2017-Oct-22 05:00N 37°31' W 000°33'815.6
2017-Oct-22 04:30N 37°25' W 000°41'815.5
2017-Oct-22 04:00N 37°20' W 000°48'815.8
2017-Oct-22 03:30N 37°15' W 000°55'815.7
2017-Oct-22 03:00N 37°10' W 001°03'915.5
2017-Oct-22 02:26N 37°04' W 001°11'4215.9
2017-Oct-21 23:48N 36°35' W 001°49'17016.4
2017-Oct-21 13:24N 36°00' W 005°15'717.7
2017-Oct-21 13:00N 35°58' W 005°23'5 0.4
2017-Oct-20 22:51N 35°58' W 005°30'2 3.8
2017-Oct-20 22:20N 35°59' W 005°28'3 7.5
2017-Oct-20 21:58N 36°00' W 005°24'511.4
2017-Oct-20 21:30N 36°03' W 005°19'222 5.7
2017-Oct-19 06:34N 37°17' W 000°58'3 9.8
2017-Oct-19 06:13N 37°20' W 000°55'210.0
2017-Oct-19 05:59N 37°21' W 000°53'510.2
2017-Oct-19 05:30N 37°25' W 000°48'5 9.8
2017-Oct-19 05:00N 37°28' W 000°44'6 9.7
2017-Oct-19 04:25N 37°32' W 000°38'4 9.6
2017-Oct-19 04:00N 37°34' W 000°34'5 9.7
2017-Oct-19 03:30N 37°38' W 000°30'5 9.8
2017-Oct-19 03:00N 37°42' W 000°27'5 9.7
2017-Oct-19 02:29N 37°46' W 000°24'5 9.8
2017-Oct-19 02:00N 37°50' W 000°21'5 9.8
2017-Oct-19 01:30N 37°54' W 000°17'5 9.9
2017-Oct-19 01:00N 37°58' W 000°14'  
Track history (hours):
 
Tides and Currents Weather Stations Pressure Air Temp Water Temp Dewpoint Dewpoint Depression Visibility Wind Speed Wind Dir Waves Ship Positions

Tubul

Last reported at 2017-Oct-28 15:41 UTC. Time now 2017-Nov-24 04:12 UTC.
Position N 35°45' E 014°49'.
Warning: this ship's position is 26 days out of date.

Length 300 m; draft 11.1 m.

Type: Ship (hazmat cat A). MMSI: 636014647.

Date/timePositionNaut miles runAvg speedWind from/ knotsBaromVisibWave heightAir tempDewpointWater temp
2017-Oct-28 15:41N 35°45' E 014°49'317.9
2017-Oct-28 15:30N 35°46' E 014°45'816.3
2017-Oct-28 14:59N 35°48' E 014°34'2 2.3
2017-Oct-28 14:14N 35°49' E 014°33'0 0.0
2017-Oct-28 13:59N 35°49' E 014°33'0 0.0
2017-Oct-28 13:28N 35°49' E 014°33'0 0.0
2017-Oct-28 12:56N 35°49' E 014°33'0 0.0
2017-Oct-28 12:29N 35°49' E 014°33'0 0.0
2017-Oct-28 11:59N 35°49' E 014°33'0 0.0
2017-Oct-28 11:29N 35°49' E 014°33'0 0.0
2017-Oct-28 07:05N 35°49' E 014°33'0 0.0
2017-Oct-28 03:56N 35°49' E 014°33'0 0.0
2017-Oct-28 03:22N 35°49' E 014°33'0 1.1
2017-Oct-28 03:00N 35°49' E 014°32'3 5.3
2017-Oct-28 02:29N 35°48' E 014°35'3 5.1
2017-Oct-28 02:00N 35°46' E 014°37'3 6.4
2017-Oct-28 01:30N 35°43' E 014°36'1 1.6
2017-Oct-28 01:00N 35°42' E 014°36'713.4
2017-Oct-28 00:30N 35°42' E 014°27'918.6
2017-Oct-28 00:00N 35°48' E 014°19'1019.5
2017-Oct-27 23:30N 35°55' E 014°10'1019.2
2017-Oct-27 23:00N 36°02' E 014°02'919.0
2017-Oct-27 22:30N 36°08' E 013°54'1019.3
2017-Oct-27 22:00N 36°15' E 013°45'1019.3
2017-Oct-27 21:30N 36°22' E 013°36'24820.0
2017-Oct-27 09:05N 39°54' E 010°51'19521.0
2017-Oct-26 23:48N 43°00' E 009°36'620.6
2017-Oct-26 23:30N 43°06' E 009°34'1020.7
2017-Oct-26 23:00N 43°16' E 009°30'1020.9
2017-Oct-26 22:30N 43°26' E 009°26'1020.6
2017-Oct-26 22:00N 43°36' E 009°21'1020.7
2017-Oct-26 21:30N 43°45' E 009°16'1120.6
2017-Oct-26 20:58N 43°56' E 009°13'1020.6
2017-Oct-26 20:30N 44°05' E 009°07'1020.6
2017-Oct-26 20:00N 44°14' E 009°01'917.9
2017-Oct-26 19:30N 44°23' E 008°57'2 4.1
2017-Oct-26 18:58N 44°24' E 008°55'0 0.0
2017-Oct-26 18:28N 44°24' E 008°55'0 0.0
2017-Oct-26 17:58N 44°24' E 008°55'0 0.0
2017-Oct-26 17:28N 44°24' E 008°55'0 0.0
2017-Oct-26 16:58N 44°24' E 008°55'0 0.0
2017-Oct-26 16:28N 44°24' E 008°55'0 0.0
2017-Oct-26 15:58N 44°24' E 008°55'0 0.0
2017-Oct-26 15:28N 44°24' E 008°55'0 0.0
2017-Oct-26 14:58N 44°24' E 008°55'0 0.0
2017-Oct-26 14:28N 44°24' E 008°55'0 0.0
2017-Oct-26 13:58N 44°24' E 008°55'0 0.0
2017-Oct-26 13:28N 44°24' E 008°55'0 0.0
2017-Oct-26 12:58N 44°24' E 008°55'0 0.0
2017-Oct-26 12:28N 44°24' E 008°55'0 0.0
2017-Oct-26 11:52N 44°24' E 008°55'0 0.0
2017-Oct-26 11:22N 44°24' E 008°55'0 0.0
2017-Oct-26 10:58N 44°24' E 008°55'0 0.0
2017-Oct-26 10:28N 44°24' E 008°55'0 0.0
2017-Oct-26 09:58N 44°24' E 008°55'0 0.0
2017-Oct-26 09:28N 44°24' E 008°55'0 0.0
2017-Oct-26 08:58N 44°24' E 008°55'0 0.0
2017-Oct-26 08:28N 44°24' E 008°55'0 0.0
2017-Oct-26 07:58N 44°24' E 008°55'0 0.0
2017-Oct-26 07:28N 44°24' E 008°55'0 0.0
2017-Oct-26 06:58N 44°24' E 008°55'0 0.0
2017-Oct-26 06:28N 44°24' E 008°55'0 0.0
2017-Oct-26 05:58N 44°24' E 008°55'0 0.0
2017-Oct-26 05:28N 44°24' E 008°55'0 0.0
2017-Oct-26 04:58N 44°24' E 008°55'0 0.0
2017-Oct-26 04:28N 44°24' E 008°55'0 0.0
2017-Oct-26 03:58N 44°24' E 008°55'0 0.0
2017-Oct-26 03:28N 44°24' E 008°55'0 0.0
2017-Oct-26 02:58N 44°24' E 008°55'0 0.0
2017-Oct-26 02:28N 44°24' E 008°55'0 0.0
2017-Oct-26 01:58N 44°24' E 008°55'0 0.0
2017-Oct-26 01:28N 44°24' E 008°55'0 0.0
2017-Oct-26 00:58N 44°24' E 008°55'0 0.0
2017-Oct-26 00:28N 44°24' E 008°55'0 0.0
2017-Oct-25 23:58N 44°24' E 008°55'0 0.0
2017-Oct-25 23:28N 44°24' E 008°55'0 0.0
2017-Oct-25 22:58N 44°24' E 008°55'0 0.0
2017-Oct-25 22:28N 44°24' E 008°55'0 0.0
2017-Oct-25 21:55N 44°24' E 008°55'0 0.0
2017-Oct-25 21:30N 44°24' E 008°55'0 0.9
2017-Oct-25 21:00N 44°24' E 008°55'3 5.5
2017-Oct-25 20:30N 44°22' E 008°58'1 1.5
2017-Oct-25 20:00N 44°22' E 008°59'1 1.5
2017-Oct-25 19:30N 44°21' E 008°59'2 3.3
2017-Oct-25 19:00N 44°21' E 009°02'0 0.3
2017-Oct-25 18:30N 44°21' E 009°02'0 0.4
2017-Oct-25 18:00N 44°21' E 009°01'0 0.3
2017-Oct-25 17:30N 44°21' E 009°01'0 0.3
2017-Oct-25 17:00N 44°21' E 009°01'0 0.3
2017-Oct-25 16:30N 44°21' E 009°01'0 1.0
2017-Oct-25 16:00N 44°21' E 009°02'0 0.4
2017-Oct-25 15:30N 44°21' E 009°02'0 0.4
2017-Oct-25 15:00N 44°21' E 009°01'0 0.3
2017-Oct-25 14:30N 44°21' E 009°01'0 0.5
2017-Oct-25 14:00N 44°21' E 009°01'0 0.4
2017-Oct-25 13:30N 44°21' E 009°02'0 0.2
2017-Oct-25 13:00N 44°21' E 009°02'0 0.2
2017-Oct-25 12:30N 44°21' E 009°01'0 0.2
2017-Oct-25 12:00N 44°21' E 009°01'0 0.2
2017-Oct-25 11:30N 44°21' E 009°01'1 1.2
2017-Oct-25 11:00N 44°21' E 009°01'0 0.4
2017-Oct-25 10:30N 44°21' E 009°00'0 0.5
2017-Oct-25 10:00N 44°20' E 009°00'0 0.1
2017-Oct-25 09:30N 44°20' E 009°00'0 1.0
2017-Oct-25 09:00N 44°21' E 009°01'3 6.5
2017-Oct-25 08:30N 44°18' E 009°00'5 9.2
2017-Oct-25 08:00N 44°13' E 008°58'714.6
2017-Oct-25 07:30N 44°07' E 008°53'714.7
2017-Oct-25 07:01N 44°01' E 008°47'714.9
2017-Oct-25 06:30N 43°55' E 008°40'815.3
2017-Oct-25 06:00N 43°49' E 008°33'815.3
2017-Oct-25 05:30N 43°43' E 008°27'815.4
2017-Oct-25 05:00N 43°37' E 008°20'815.4
2017-Oct-25 04:30N 43°31' E 008°14'815.6
2017-Oct-25 04:00N 43°25' E 008°07'815.5
2017-Oct-25 03:30N 43°19' E 007°60'815.4
2017-Oct-25 03:00N 43°16' E 007°51'815.6
2017-Oct-25 02:30N 43°12' E 007°41'815.5
2017-Oct-25 02:00N 43°08' E 007°32'815.5
2017-Oct-25 01:31N 43°05' E 007°22'815.5
2017-Oct-25 01:01N 43°01' E 007°13'815.4
2017-Oct-25 00:30N 42°58' E 007°03'815.3
2017-Oct-24 23:58N 42°54' E 006°53'714.9
2017-Oct-24 23:31N 42°51' E 006°45'815.2
2017-Oct-24 23:00N 42°49' E 006°35'815.2
2017-Oct-24 22:30N 42°47' E 006°25'914.8
2017-Oct-24 21:56N 42°46' E 006°13'615.0
2017-Oct-24 21:30N 42°47' E 006°05'815.0
2017-Oct-24 21:00N 42°48' E 005°55'715.0
2017-Oct-24 20:31N 42°49' E 005°45'815.0
2017-Oct-24 20:00N 42°51' E 005°35'815.2
2017-Oct-24 19:30N 42°54' E 005°25'815.0
2017-Oct-24 19:00N 42°57' E 005°16'714.5
2017-Oct-24 18:30N 43°01' E 005°08'815.7
2017-Oct-24 18:01N 43°08' E 005°03'918.2
2017-Oct-24 17:30N 43°17' E 004°60'612.6
2017-Oct-24 17:00N 43°23' E 004°57'5 9.2
2017-Oct-24 16:29N 43°25' E 004°51'0 0.0
2017-Oct-24 15:59N 43°25' E 004°51'0 0.0
2017-Oct-24 15:29N 43°25' E 004°51'0 0.0
2017-Oct-24 14:59N 43°25' E 004°51'0 0.0
2017-Oct-24 14:26N 43°25' E 004°51'0 0.0
2017-Oct-24 13:59N 43°25' E 004°51'0 0.0
2017-Oct-24 13:29N 43°25' E 004°51'0 0.0
2017-Oct-24 12:59N 43°25' E 004°51'0 0.0
2017-Oct-24 12:29N 43°25' E 004°51'0 0.0
2017-Oct-24 11:59N 43°25' E 004°51'0 0.0
2017-Oct-24 11:29N 43°25' E 004°51'0 0.0
2017-Oct-24 10:59N 43°25' E 004°51'0 0.0
2017-Oct-24 10:29N 43°25' E 004°51'0 0.0
2017-Oct-24 09:59N 43°25' E 004°51'0 0.0
2017-Oct-24 09:26N 43°25' E 004°51'0 0.0
2017-Oct-24 08:59N 43°25' E 004°51'0 0.0
2017-Oct-24 08:29N 43°25' E 004°51'0 0.0
2017-Oct-24 07:59N 43°25' E 004°51'0 0.0
2017-Oct-24 07:29N 43°25' E 004°51'0 0.0
2017-Oct-24 06:59N 43°25' E 004°51'0 0.0
2017-Oct-24 06:29N 43°25' E 004°51'0 0.0
2017-Oct-24 05:59N 43°25' E 004°51'0 0.0
2017-Oct-24 05:29N 43°25' E 004°51'0 0.0
2017-Oct-24 04:59N 43°25' E 004°51'0 0.0
2017-Oct-24 04:29N 43°25' E 004°51'0 0.0
2017-Oct-24 03:59N 43°25' E 004°51'0 0.0
2017-Oct-24 03:29N 43°25' E 004°51'0 0.0
2017-Oct-24 02:59N 43°25' E 004°51'0 0.0
2017-Oct-24 02:29N 43°25' E 004°51'0 0.0
2017-Oct-24 01:59N 43°25' E 004°51'0 0.0
2017-Oct-24 01:29N 43°25' E 004°51'0 0.0
2017-Oct-24 00:59N 43°25' E 004°51'0 0.0
2017-Oct-24 00:29N 43°25' E 004°51'0 0.0
2017-Oct-23 23:56N 43°25' E 004°51'0 0.0
2017-Oct-23 23:29N 43°25' E 004°51'0 0.0
2017-Oct-23 22:59N 43°25' E 004°51'0 0.0
2017-Oct-23 22:29N 43°25' E 004°51'0 0.0
2017-Oct-23 21:59N 43°25' E 004°51'0 0.0
2017-Oct-23 21:29N 43°25' E 004°51'0 0.0
2017-Oct-23 20:59N 43°25' E 004°51'0 0.0
2017-Oct-23 20:29N 43°25' E 004°51'0 0.0
2017-Oct-23 19:59N 43°25' E 004°51'0 0.0
2017-Oct-23 19:29N 43°25' E 004°51'0 0.0
2017-Oct-23 18:59N 43°25' E 004°51'0 0.0
2017-Oct-23 18:29N 43°25' E 004°51'0 0.0
2017-Oct-23 17:59N 43°25' E 004°51'0 0.0
2017-Oct-23 17:29N 43°25' E 004°51'0 0.0
2017-Oct-23 16:59N 43°25' E 004°51'0 0.0
2017-Oct-23 16:29N 43°25' E 004°51'0 0.0
2017-Oct-23 15:59N 43°25' E 004°51'0 0.0
2017-Oct-23 15:29N 43°25' E 004°51'0 0.0
2017-Oct-23 14:59N 43°25' E 004°51'0 0.0
2017-Oct-23 14:29N 43°25' E 004°51'0 0.0
2017-Oct-23 13:59N 43°25' E 004°51'0 0.0
2017-Oct-23 13:30N 43°25' E 004°51'0 0.2
2017-Oct-23 13:00N 43°25' E 004°51'2 3.3
2017-Oct-23 12:30N 43°24' E 004°53'611.1
2017-Oct-23 12:00N 43°21' E 004°59'4 7.4
2017-Oct-23 11:31N 43°17' E 005°00'510.6
2017-Oct-23 11:00N 43°12' E 005°02'4 8.5
2017-Oct-23 10:30N 43°08' E 005°03'4 8.0
2017-Oct-23 10:00N 43°04' E 005°03'3 6.5
2017-Oct-23 09:30N 43°01' E 005°02'612.3
2017-Oct-23 09:00N 42°56' E 004°58'713.7
2017-Oct-23 08:30N 42°50' E 004°52'713.4
2017-Oct-23 08:00N 42°45' E 004°46'713.4
2017-Oct-23 07:30N 42°40' E 004°41'713.5
2017-Oct-23 07:00N 42°35' E 004°35'34814.7
2017-Oct-22 07:24N 38°00' W 000°06'1215.0
2017-Oct-22 06:36N 37°51' W 000°15'315.3
2017-Oct-22 06:25N 37°48' W 000°17'615.4
2017-Oct-22 06:00N 37°43' W 000°22'815.5
2017-Oct-22 05:30N 37°37' W 000°27'815.5
2017-Oct-22 05:00N 37°31' W 000°33'815.6
2017-Oct-22 04:30N 37°25' W 000°41'815.5
2017-Oct-22 04:00N 37°20' W 000°48'815.8
2017-Oct-22 03:30N 37°15' W 000°55'815.7
2017-Oct-22 03:00N 37°10' W 001°03'915.5
2017-Oct-22 02:26N 37°04' W 001°11'4215.9
2017-Oct-21 23:48N 36°35' W 001°49'17016.4
2017-Oct-21 13:24N 36°00' W 005°15'717.7
2017-Oct-21 13:00N 35°58' W 005°23'5 0.4
2017-Oct-20 22:51N 35°58' W 005°30'2 3.8
2017-Oct-20 22:20N 35°59' W 005°28'3 7.5
2017-Oct-20 21:58N 36°00' W 005°24'511.4
2017-Oct-20 21:30N 36°03' W 005°19'222 5.7
2017-Oct-19 06:34N 37°17' W 000°58'3 9.8
2017-Oct-19 06:13N 37°20' W 000°55'210.0
2017-Oct-19 05:59N 37°21' W 000°53'510.2
2017-Oct-19 05:30N 37°25' W 000°48'5 9.8
2017-Oct-19 05:00N 37°28' W 000°44'6 9.7
2017-Oct-19 04:25N 37°32' W 000°38'4 9.6
2017-Oct-19 04:00N 37°34' W 000°34'5 9.7
2017-Oct-19 03:30N 37°38' W 000°30'5 9.8
2017-Oct-19 03:00N 37°42' W 000°27'5 9.7
2017-Oct-19 02:29N 37°46' W 000°24'5 9.8
2017-Oct-19 02:00N 37°50' W 000°21'5 9.8
2017-Oct-19 01:30N 37°54' W 000°17'5 9.9
2017-Oct-19 01:00N 37°58' W 000°14'  

Dump ship's entire track history